Ikan Bagat — 3EYX8 — position and weather

sailwx.info

Track history (hours):
 
Tides and Currents Weather Stations Pressure Air Temp Water Temp Dewpoint Dewpoint Depression Visibility Wind Speed Wind Dir Waves Ship Positions

Ikan Bagat

Last reported at 2017-Jul-23 11:30 UTC. Time now 2017-Jul-27 22:30 UTC.
Position S 30°20' E 031°05'.

Length 229 m; draft 9 m.

Type: Ship. MMSI: 354375000.

Date/timePositionNaut miles runAvg speedWind from/ knotsBaromVisibWave heightAir tempDewpointWater temp
2017-Jul-23 11:30S 30°20' E 031°05'811.5
2017-Jul-23 10:49S 30°13' E 031°09'411.7
2017-Jul-23 10:30S 30°09' E 031°11'612.3
2017-Jul-23 10:01S 30°04' E 031°13'612.2
2017-Jul-23 09:30S 29°57' E 031°12'511.1
2017-Jul-23 09:01S 29°53' E 031°09'4 8.5
2017-Jul-23 08:30S 29°51' E 031°04'2 3.8
2017-Jul-23 07:59S 29°52' E 031°02'0 0.2
2017-Jul-23 07:29S 29°52' E 031°02'0 0.0
2017-Jul-23 06:53S 29°52' E 031°02'0 0.0
2017-Jul-23 06:29S 29°52' E 031°02'0 0.0
2017-Jul-23 05:59S 29°52' E 031°02'0 0.0
2017-Jul-23 05:29S 29°52' E 031°02'0 0.0
2017-Jul-23 04:59S 29°52' E 031°02'0 0.0
2017-Jul-23 04:29S 29°52' E 031°02'0 0.0
2017-Jul-23 03:59S 29°52' E 031°02'0 0.0
2017-Jul-23 03:29S 29°52' E 031°02'0 0.0
2017-Jul-23 02:59S 29°52' E 031°02'0 0.0
2017-Jul-23 02:29S 29°52' E 031°02'0 0.0
2017-Jul-23 01:59S 29°52' E 031°02'0 0.0
2017-Jul-23 01:29S 29°52' E 031°02'0 0.0
2017-Jul-23 00:59S 29°52' E 031°02'0 0.0
2017-Jul-23 00:29S 29°52' E 031°02'0 0.0
2017-Jul-22 23:59S 29°52' E 031°02'0 0.0
2017-Jul-22 23:29S 29°52' E 031°02'0 0.0
2017-Jul-22 22:59S 29°52' E 031°02'0 0.0
2017-Jul-22 22:29S 29°52' E 031°02'0 0.0
2017-Jul-22 21:59S 29°52' E 031°02'0 0.0
2017-Jul-22 21:31S 29°52' E 031°02'1 1.1
2017-Jul-22 21:00S 29°53' E 031°03'4 7.1
2017-Jul-22 20:30S 29°50' E 031°06'3 5.1
2017-Jul-22 20:00S 29°49' E 031°08'1 2.6
2017-Jul-22 19:31S 29°49' E 031°07'1 1.3
2017-Jul-22 19:01S 29°48' E 031°07'0 0.4
2017-Jul-22 18:30S 29°48' E 031°07'0 0.8
2017-Jul-22 18:00S 29°48' E 031°07'1 2.4
2017-Jul-22 17:31S 29°48' E 031°06'1 1.1
2017-Jul-22 17:00S 29°48' E 031°06'0 0.9
2017-Jul-22 16:30S 29°49' E 031°06'2 4.9
2017-Jul-22 16:01S 29°48' E 031°09'3 6.2
2017-Jul-22 15:31S 29°46' E 031°12'1 1.5
2017-Jul-22 15:01S 29°46' E 031°13'1 1.0
2017-Jul-22 14:00S 29°46' E 031°14'2 3.4
2017-Jul-22 13:30S 29°44' E 031°14'3 6.9
2017-Jul-22 13:00S 29°43' E 031°18'4 8.0
2017-Jul-22 12:30S 29°41' E 031°22'611.4
2017-Jul-22 12:00S 29°38' E 031°28'611.7
2017-Jul-22 11:30S 29°35' E 031°33'611.5
2017-Jul-22 11:00S 29°32' E 031°39'611.5
2017-Jul-22 10:30S 29°29' E 031°45'611.3
2017-Jul-22 10:00S 29°26' E 031°50'612.0
2017-Jul-22 09:31S 29°24' E 031°56'1012.9
2017-Jul-22 08:43S 29°18' E 032°06'3312.7
2017-Jul-22 06:06S 29°01' E 032°39'312.5
2017-Jul-22 05:53S 28°60' E 032°41'  
2017-Jul-17 07:04S 19°54' E 056°41'212.0
2017-Jul-17 06:55S 19°53' E 056°43'511.9
2017-Jul-17 06:30S 19°50' E 056°47'612.0
2017-Jul-17 06:00S 19°47' E 056°53'612.0
2017-Jul-17 05:30S 19°44' E 056°58'612.1
2017-Jul-17 05:01S 19°41' E 057°04'612.0
2017-Jul-17 04:30S 19°38' E 057°09'612.0
2017-Jul-17 04:00S 19°35' E 057°15'612.0
2017-Jul-17 03:30S 19°32' E 057°20'611.9
2017-Jul-17 02:59S 19°28' E 057°26'612.0
2017-Jul-17 02:31S 19°25' E 057°31'612.3
2017-Jul-17 02:00S 19°22' E 057°36'  
Track history (hours):
 
Tides and Currents Weather Stations Pressure Air Temp Water Temp Dewpoint Dewpoint Depression Visibility Wind Speed Wind Dir Waves Ship Positions

Ikan Bagat

Last reported at 2017-Jul-23 11:30 UTC. Time now 2017-Jul-27 22:30 UTC.
Position S 30°20' E 031°05'.

Length 229 m; draft 9 m.

Type: Ship. MMSI: 354375000.

Date/timePositionNaut miles runAvg speedWind from/ knotsBaromVisibWave heightAir tempDewpointWater temp
2017-Jul-23 11:30S 30°20' E 031°05'811.5
2017-Jul-23 10:49S 30°13' E 031°09'411.7
2017-Jul-23 10:30S 30°09' E 031°11'612.3
2017-Jul-23 10:01S 30°04' E 031°13'612.2
2017-Jul-23 09:30S 29°57' E 031°12'511.1
2017-Jul-23 09:01S 29°53' E 031°09'4 8.5
2017-Jul-23 08:30S 29°51' E 031°04'2 3.8
2017-Jul-23 07:59S 29°52' E 031°02'0 0.2
2017-Jul-23 07:29S 29°52' E 031°02'0 0.0
2017-Jul-23 06:53S 29°52' E 031°02'0 0.0
2017-Jul-23 06:29S 29°52' E 031°02'0 0.0
2017-Jul-23 05:59S 29°52' E 031°02'0 0.0
2017-Jul-23 05:29S 29°52' E 031°02'0 0.0
2017-Jul-23 04:59S 29°52' E 031°02'0 0.0
2017-Jul-23 04:29S 29°52' E 031°02'0 0.0
2017-Jul-23 03:59S 29°52' E 031°02'0 0.0
2017-Jul-23 03:29S 29°52' E 031°02'0 0.0
2017-Jul-23 02:59S 29°52' E 031°02'0 0.0
2017-Jul-23 02:29S 29°52' E 031°02'0 0.0
2017-Jul-23 01:59S 29°52' E 031°02'0 0.0
2017-Jul-23 01:29S 29°52' E 031°02'0 0.0
2017-Jul-23 00:59S 29°52' E 031°02'0 0.0
2017-Jul-23 00:29S 29°52' E 031°02'0 0.0
2017-Jul-22 23:59S 29°52' E 031°02'0 0.0
2017-Jul-22 23:29S 29°52' E 031°02'0 0.0
2017-Jul-22 22:59S 29°52' E 031°02'0 0.0
2017-Jul-22 22:29S 29°52' E 031°02'0 0.0
2017-Jul-22 21:59S 29°52' E 031°02'0 0.0
2017-Jul-22 21:31S 29°52' E 031°02'1 1.1
2017-Jul-22 21:00S 29°53' E 031°03'4 7.1
2017-Jul-22 20:30S 29°50' E 031°06'3 5.1
2017-Jul-22 20:00S 29°49' E 031°08'1 2.6
2017-Jul-22 19:31S 29°49' E 031°07'1 1.3
2017-Jul-22 19:01S 29°48' E 031°07'0 0.4
2017-Jul-22 18:30S 29°48' E 031°07'0 0.8
2017-Jul-22 18:00S 29°48' E 031°07'1 2.4
2017-Jul-22 17:31S 29°48' E 031°06'1 1.1
2017-Jul-22 17:00S 29°48' E 031°06'0 0.9
2017-Jul-22 16:30S 29°49' E 031°06'2 4.9
2017-Jul-22 16:01S 29°48' E 031°09'3 6.2
2017-Jul-22 15:31S 29°46' E 031°12'1 1.5
2017-Jul-22 15:01S 29°46' E 031°13'1 1.0
2017-Jul-22 14:00S 29°46' E 031°14'2 3.4
2017-Jul-22 13:30S 29°44' E 031°14'3 6.9
2017-Jul-22 13:00S 29°43' E 031°18'4 8.0
2017-Jul-22 12:30S 29°41' E 031°22'611.4
2017-Jul-22 12:00S 29°38' E 031°28'611.7
2017-Jul-22 11:30S 29°35' E 031°33'611.5
2017-Jul-22 11:00S 29°32' E 031°39'611.5
2017-Jul-22 10:30S 29°29' E 031°45'611.3
2017-Jul-22 10:00S 29°26' E 031°50'612.0
2017-Jul-22 09:31S 29°24' E 031°56'1012.9
2017-Jul-22 08:43S 29°18' E 032°06'3312.7
2017-Jul-22 06:06S 29°01' E 032°39'312.5
2017-Jul-22 05:53S 28°60' E 032°41'  
2017-Jul-17 07:04S 19°54' E 056°41'212.0
2017-Jul-17 06:55S 19°53' E 056°43'511.9
2017-Jul-17 06:30S 19°50' E 056°47'612.0
2017-Jul-17 06:00S 19°47' E 056°53'612.0
2017-Jul-17 05:30S 19°44' E 056°58'612.1
2017-Jul-17 05:01S 19°41' E 057°04'612.0
2017-Jul-17 04:30S 19°38' E 057°09'612.0
2017-Jul-17 04:00S 19°35' E 057°15'612.0
2017-Jul-17 03:30S 19°32' E 057°20'611.9
2017-Jul-17 02:59S 19°28' E 057°26'612.0
2017-Jul-17 02:31S 19°25' E 057°31'612.3
2017-Jul-17 02:00S 19°22' E 057°36'  

Dump ship's entire track history